createdAt,value
2018-06-29T00:01:57.725Z,30.23
2018-06-29T00:04:27.063Z,31.97
2018-06-29T00:06:56.914Z,32.17
2018-06-29T00:09:26.254Z,36.83
2018-06-29T00:11:55.588Z,35.07
2018-06-29T00:14:25.014Z,36.17
2018-06-29T00:16:54.346Z,32.97
2018-06-29T00:19:23.688Z,36.23
2018-06-29T00:21:53.021Z,39.27
2018-06-29T00:24:22.399Z,33.40
2018-06-29T00:26:51.876Z,38.50
2018-06-29T00:29:20.775Z,33.80
2018-06-29T00:31:49.580Z,34.40
2018-06-29T00:34:18.871Z,33.60
2018-06-29T00:36:47.740Z,30.10
2018-06-29T00:39:16.521Z,40.60
2018-06-29T00:41:45.863Z,36.67
2018-06-29T00:44:15.240Z,32.87
2018-06-29T00:46:44.012Z,33.53
2018-06-29T00:49:13.328Z,34.70
2018-06-29T00:51:42.126Z,36.40
2018-06-29T00:54:10.928Z,36.93
2018-06-29T00:56:40.269Z,30.37
2018-06-29T00:59:09.634Z,40.77
2018-06-29T01:01:38.964Z,36.67
2018-06-29T01:04:08.327Z,31.43
2018-06-29T01:06:37.648Z,34.57
2018-06-29T01:09:10.500Z,30.67
2018-06-29T01:11:40.111Z,38.07
2018-06-29T01:14:09.250Z,34.77
2018-06-29T01:16:38.870Z,32.80
2018-06-29T01:19:08.262Z,29.73
2018-06-29T01:21:37.623Z,41.00
2018-06-29T01:24:07.087Z,27.80
2018-06-29T01:26:36.469Z,32.27
2018-06-29T01:29:05.827Z,35.03
2018-06-29T01:31:35.190Z,34.83
2018-06-29T01:34:04.554Z,33.63
2018-06-29T01:36:33.879Z,27.90
2018-06-29T01:39:03.399Z,37.33
2018-06-29T01:41:32.783Z,31.00
2018-06-29T01:44:02.184Z,35.27
2018-06-29T01:46:31.637Z,36.87
2018-06-29T01:49:00.529Z,30.70
2018-06-29T01:51:29.463Z,31.33
2018-06-29T01:53:58.860Z,34.30
2018-06-29T01:56:28.168Z,33.27
2018-06-29T01:58:57.478Z,29.80
2018-06-29T02:01:26.824Z,40.43
2018-06-29T02:03:55.562Z,27.83
2018-06-29T02:06:24.891Z,34.70
2018-06-29T02:08:54.445Z,30.57
2018-06-29T02:11:23.850Z,30.77
2018-06-29T02:13:53.397Z,29.07
2018-06-29T02:16:23.070Z,26.87
2018-06-29T02:18:52.490Z,33.00
2018-06-29T02:21:22.067Z,30.93
2018-06-29T02:23:51.863Z,34.57
2018-06-29T02:26:21.317Z,28.23
2018-06-29T02:28:50.727Z,35.27
2018-06-29T02:31:20.122Z,42.50
2018-06-29T02:33:49.616Z,23.33
2018-06-29T02:36:18.930Z,33.87
2018-06-29T02:38:48.224Z,37.77
2018-06-29T02:41:17.590Z,34.13
2018-06-29T02:43:46.928Z,46.60
2018-06-29T02:46:16.386Z,42.10
2018-06-29T02:48:45.773Z,28.50
2018-06-29T02:51:15.127Z,29.83
2018-06-29T02:53:44.527Z,45.40
2018-06-29T02:56:13.961Z,26.53
2018-06-29T02:58:43.340Z,35.07
2018-06-29T03:01:12.737Z,25.90
2018-06-29T03:03:42.157Z,36.70
2018-06-29T03:06:11.527Z,29.60
2018-06-29T03:08:40.866Z,33.23
2018-06-29T03:11:10.202Z,43.20
2018-06-29T03:13:39.666Z,29.70
2018-06-29T03:16:09.103Z,38.80
2018-06-29T03:18:38.446Z,28.00
2018-06-29T03:21:07.817Z,37.67
2018-06-29T03:23:37.173Z,32.30
2018-06-29T03:26:06.538Z,29.87
2018-06-29T03:28:36.023Z,38.33
2018-06-29T03:31:05.515Z,32.10
2018-06-29T03:33:34.862Z,38.20
2018-06-29T03:36:04.219Z,34.03
2018-06-29T03:38:33.626Z,22.90
2018-06-29T03:41:02.997Z,28.50
2018-06-29T03:43:32.439Z,30.57
2018-06-29T03:46:01.763Z,29.80
2018-06-29T03:48:31.130Z,34.00
2018-06-29T03:51:00.046Z,29.60
2018-06-29T03:53:29.438Z,31.77
2018-06-29T03:55:58.797Z,34.10
2018-06-29T03:58:28.137Z,31.50
2018-06-29T04:00:57.495Z,34.93
2018-06-29T04:03:26.805Z,30.50
2018-06-29T04:05:56.151Z,42.47
2018-06-29T04:08:25.467Z,33.97
2018-06-29T04:10:54.755Z,25.07
2018-06-29T04:13:24.160Z,29.73
2018-06-29T04:15:53.684Z,34.40
2018-06-29T04:18:23.005Z,34.63
2018-06-29T04:20:52.363Z,31.20
2018-06-29T04:23:21.829Z,40.70
2018-06-29T04:25:50.629Z,29.13
2018-06-29T04:28:19.394Z,30.80
2018-06-29T04:30:48.699Z,29.00
2018-06-29T04:33:17.447Z,41.83
2018-06-29T04:35:46.796Z,38.57
2018-06-29T04:38:15.590Z,36.97
2018-06-29T04:40:44.918Z,33.77
2018-06-29T04:43:14.270Z,35.63
2018-06-29T04:45:43.562Z,39.57
2018-06-29T04:48:12.841Z,39.67
2018-06-29T04:50:42.240Z,38.73
2018-06-29T04:53:11.598Z,36.73
2018-06-29T04:55:40.422Z,40.93
2018-06-29T04:58:09.842Z,38.60
2018-06-29T05:00:39.193Z,46.20
2018-06-29T05:03:09.193Z,36.87
2018-06-29T05:05:38.527Z,42.20
2018-06-29T05:08:07.872Z,49.83
2018-06-29T05:10:37.189Z,33.80
2018-06-29T05:13:06.048Z,51.90
2018-06-29T05:15:35.403Z,40.53
2018-06-29T05:18:04.762Z,45.33
2018-06-29T05:20:34.074Z,36.07
2018-06-29T05:23:03.404Z,39.13
2018-06-29T05:25:32.787Z,34.63
2018-06-29T05:28:02.192Z,28.47
2018-06-29T05:30:31.001Z,39.13
2018-06-29T05:33:00.469Z,37.43
2018-06-29T05:35:29.953Z,31.53
2018-06-29T05:37:59.309Z,42.30
2018-06-29T05:40:28.775Z,29.30
2018-06-29T05:42:58.087Z,35.57
2018-06-29T05:45:27.442Z,34.93
2018-06-29T05:47:56.792Z,39.80
2018-06-29T05:50:26.140Z,29.23
2018-06-29T05:52:55.584Z,34.70
2018-06-29T05:55:24.918Z,30.80
2018-06-29T05:57:54.231Z,32.67
2018-06-29T06:00:24.097Z,42.57
2018-06-29T06:02:53.632Z,34.00
2018-06-29T06:05:22.426Z,34.20
2018-06-29T06:07:51.202Z,32.37
2018-06-29T06:10:20.001Z,36.80
2018-06-29T06:12:48.942Z,38.90
2018-06-29T06:15:18.372Z,29.50
2018-06-29T06:17:47.763Z,45.10
2018-06-29T06:20:17.264Z,29.60
2018-06-29T06:22:46.701Z,38.67
2018-06-29T06:25:16.064Z,41.33
2018-06-29T06:27:45.415Z,38.07
2018-06-29T06:30:14.805Z,38.63
2018-06-29T06:32:43.560Z,34.10
2018-06-29T06:35:12.926Z,44.83
2018-06-29T06:37:42.271Z,40.30
2018-06-29T06:40:11.591Z,36.40
2018-06-29T06:42:40.374Z,41.47
2018-06-29T06:45:09.225Z,40.40
2018-06-29T06:47:38.584Z,38.27
2018-06-29T06:50:07.930Z,39.70
2018-06-29T06:52:37.259Z,36.27
2018-06-29T06:55:06.053Z,34.23
2018-06-29T06:57:35.354Z,42.77
2018-06-29T07:00:04.364Z,34.77
2018-06-29T07:02:33.715Z,46.60
2018-06-29T07:05:03.134Z,45.60
2018-06-29T07:07:32.879Z,40.33
2018-06-29T07:10:02.267Z,37.57
2018-06-29T07:12:31.143Z,40.37
2018-06-29T07:15:00.054Z,33.13
2018-06-29T07:17:28.886Z,37.20
2018-06-29T07:19:58.197Z,33.50
2018-06-29T07:22:27.534Z,43.03
2018-06-29T07:24:56.298Z,44.40
2018-06-29T07:27:25.645Z,35.60
2018-06-29T07:29:55.005Z,39.33
2018-06-29T07:32:24.363Z,35.07
2018-06-29T07:34:53.666Z,38.90
2018-06-29T07:37:22.977Z,31.90
2018-06-29T07:39:52.270Z,39.27
2018-06-29T07:42:21.690Z,39.97
2018-06-29T07:44:51.138Z,28.37
2018-06-29T07:47:19.896Z,33.43
2018-06-29T07:49:49.246Z,35.60
2018-06-29T07:52:18.622Z,31.03
2018-06-29T07:54:47.351Z,34.50
2018-06-29T07:57:16.674Z,27.73
2018-06-29T07:59:46.058Z,39.80
2018-06-29T08:02:15.374Z,28.13
2018-06-29T08:04:44.697Z,39.60
2018-06-29T08:07:14.048Z,39.53
2018-06-29T08:09:43.404Z,31.47
2018-06-29T08:12:12.711Z,34.50
2018-06-29T08:14:41.501Z,46.30
2018-06-29T08:17:10.275Z,38.27
2018-06-29T08:19:39.611Z,31.13
2018-06-29T08:22:08.989Z,36.27
2018-06-29T08:24:42.039Z,32.47
2018-06-29T08:27:11.385Z,37.97
2018-06-29T08:29:40.257Z,34.97
2018-06-29T08:32:09.605Z,38.43
2018-06-29T08:34:38.914Z,38.50
2018-06-29T08:37:08.202Z,38.53
2018-06-29T08:39:37.923Z,45.43
2018-06-29T08:42:07.339Z,35.30
2018-06-29T08:44:36.655Z,32.97
2018-06-29T08:47:06.126Z,33.83
2018-06-29T08:49:34.959Z,34.50
2018-06-29T08:52:04.385Z,31.73
2018-06-29T08:54:33.802Z,36.17
2018-06-29T08:57:03.194Z,38.93
2018-06-29T08:59:31.953Z,26.77
2018-06-29T09:02:01.344Z,29.33
2018-06-29T09:04:30.778Z,31.50
2018-06-29T09:07:00.216Z,31.63
2018-06-29T09:09:29.652Z,35.23
2018-06-29T09:11:59.007Z,35.40
2018-06-29T09:14:28.348Z,34.67
2018-06-29T09:16:57.739Z,36.33
2018-06-29T09:19:27.146Z,28.70
2018-06-29T09:21:56.492Z,38.30
2018-06-29T09:24:25.380Z,34.00
2018-06-29T09:26:54.722Z,41.70
2018-06-29T09:29:24.059Z,41.33
2018-06-29T09:31:53.555Z,38.40
2018-06-29T09:34:22.956Z,31.60
2018-06-29T09:36:52.327Z,36.23
2018-06-29T09:39:21.745Z,35.87
2018-06-29T09:41:51.189Z,32.17
2018-06-29T09:44:20.111Z,37.93
2018-06-29T09:46:49.427Z,32.60
2018-06-29T09:49:18.787Z,41.07
2018-06-29T09:51:48.350Z,29.37
2018-06-29T09:54:17.686Z,34.43
2018-06-29T09:56:47.115Z,34.83
2018-06-29T09:59:16.494Z,30.80
2018-06-29T10:01:45.813Z,32.33
2018-06-29T10:04:14.635Z,40.97
2018-06-29T10:06:44.108Z,32.10
2018-06-29T10:09:13.453Z,31.93
2018-06-29T10:11:42.869Z,35.70
2018-06-29T10:14:12.268Z,36.43
2018-06-29T10:16:41.588Z,38.57
2018-06-29T10:19:10.970Z,28.47
2018-06-29T10:21:40.373Z,47.10
2018-06-29T10:24:09.823Z,42.93
2018-06-29T10:26:39.242Z,33.43
2018-06-29T10:29:08.610Z,36.97
2018-06-29T10:31:38.097Z,33.60
2018-06-29T10:34:07.622Z,32.70
2018-06-29T10:36:37.012Z,36.97
2018-06-29T10:39:10.202Z,42.33
2018-06-29T10:41:39.863Z,32.73
2018-06-29T10:44:09.610Z,36.93
2018-06-29T10:46:39.759Z,35.07
2018-06-29T10:49:09.242Z,35.70
2018-06-29T10:51:39.068Z,36.20
2018-06-29T10:54:08.607Z,42.27
2018-06-29T10:56:38.152Z,40.17
2018-06-29T10:59:07.610Z,57.13
2018-06-29T11:01:37.014Z,31.13
2018-06-29T11:04:06.645Z,38.53
2018-06-29T11:06:36.084Z,44.43
2018-06-29T11:09:09.265Z,39.63
2018-06-29T11:11:39.210Z,36.50
2018-06-29T11:14:09.289Z,39.87
2018-06-29T11:16:38.978Z,33.77
2018-06-29T11:19:08.417Z,64.00
2018-06-29T11:21:38.217Z,36.60
2018-06-29T11:24:07.734Z,32.50
2018-06-29T11:26:37.154Z,33.87
2018-06-29T11:29:06.064Z,28.83
2018-06-29T11:31:34.889Z,32.40
2018-06-29T11:34:04.395Z,28.77
2018-06-29T11:36:33.968Z,36.03
2018-06-29T11:39:03.861Z,40.67
2018-06-29T11:41:33.307Z,37.00
2018-06-29T11:44:02.721Z,31.27
2018-06-29T11:46:43.898Z,31.00
2018-06-29T11:49:30.574Z,28.80
2018-06-29T11:52:00.036Z,35.97
2018-06-29T11:54:29.434Z,36.13
2018-06-29T11:56:58.866Z,35.00
2018-06-29T11:59:28.348Z,37.33
2018-06-29T12:01:57.718Z,32.07
2018-06-29T12:04:27.151Z,35.75
2018-06-29T12:06:56.538Z,39.70
2018-06-29T12:09:29.282Z,34.03
2018-06-29T12:11:59.183Z,32.50
2018-06-29T12:14:28.653Z,34.63
2018-06-29T12:16:58.040Z,28.90
2018-06-29T12:19:27.496Z,28.33
2018-06-29T12:21:56.253Z,33.63
2018-06-29T12:24:25.564Z,34.67
2018-06-29T12:26:54.372Z,30.90
2018-06-29T12:29:23.245Z,32.57
2018-06-29T12:31:52.573Z,29.30
2018-06-29T12:34:22.170Z,26.83
2018-06-29T12:36:51.543Z,26.80
2018-06-29T12:39:20.828Z,33.37
2018-06-29T12:41:50.306Z,30.17
2018-06-29T12:44:19.734Z,34.53
2018-06-29T12:46:49.108Z,33.47
2018-06-29T12:49:18.526Z,30.83
2018-06-29T12:51:47.906Z,32.77
2018-06-29T12:54:17.278Z,27.70
2018-06-29T12:56:46.745Z,29.27
2018-06-29T12:59:16.158Z,32.33
2018-06-29T13:01:45.536Z,33.23
2018-06-29T13:04:14.970Z,33.53
2018-06-29T13:06:44.361Z,37.00
2018-06-29T13:09:13.632Z,23.03
2018-06-29T13:11:43.056Z,35.37
2018-06-29T13:14:12.425Z,27.93
2018-06-29T13:16:41.822Z,27.50
2018-06-29T13:19:11.298Z,30.77
2018-06-29T13:21:41.362Z,26.87
2018-06-29T13:24:13.317Z,32.40
2018-06-29T13:26:42.238Z,27.83
2018-06-29T13:29:13.391Z,31.03
2018-06-29T13:31:42.721Z,26.10
2018-06-29T13:34:12.987Z,26.70
2018-06-29T13:36:42.431Z,29.10
2018-06-29T13:39:12.234Z,38.50
2018-06-29T13:41:41.970Z,27.33
2018-06-29T13:44:10.905Z,26.43
2018-06-29T13:46:40.277Z,30.70
2018-06-29T13:49:15.297Z,25.25
2018-06-29T13:51:46.110Z,28.17
2018-06-29T13:54:18.405Z,26.87
2018-06-29T13:57:40.292Z,20.57
2018-06-29T14:00:09.817Z,24.93
2018-06-29T14:02:40.249Z,33.53
2018-06-29T14:05:10.019Z,33.93
2018-06-29T14:07:39.388Z,25.67
2018-06-29T14:10:08.803Z,29.50
2018-06-29T14:12:38.401Z,34.73
2018-06-29T14:15:07.859Z,27.87
2018-06-29T14:17:37.327Z,25.63
2018-06-29T14:20:07.006Z,25.47
2018-06-29T14:22:36.346Z,33.23
2018-06-29T14:25:05.831Z,25.17
2018-06-29T14:27:35.143Z,26.40
2018-06-29T14:30:04.619Z,30.43
2018-06-29T14:32:33.965Z,25.47
2018-06-29T14:35:03.295Z,25.50
2018-06-29T14:37:33.343Z,28.60
2018-06-29T14:40:02.787Z,36.30
2018-06-29T14:42:32.096Z,21.07
2018-06-29T14:45:01.402Z,32.97
2018-06-29T14:47:30.790Z,29.80
2018-06-29T14:50:00.387Z,27.43
2018-06-29T14:52:29.785Z,29.07
2018-06-29T14:54:59.166Z,26.17
2018-06-29T14:57:28.512Z,31.57
2018-06-29T14:59:57.820Z,24.70
2018-06-29T15:02:27.248Z,31.90
2018-06-29T15:04:56.551Z,26.80
2018-06-29T15:07:25.866Z,24.73
2018-06-29T15:09:55.217Z,27.23
2018-06-29T15:12:24.559Z,28.33
2018-06-29T15:14:53.433Z,30.70
2018-06-29T15:17:22.803Z,32.00
2018-06-29T15:19:52.106Z,29.53
2018-06-29T15:22:21.424Z,29.13
2018-06-29T15:24:50.854Z,29.07
2018-06-29T15:27:20.299Z,21.70
2018-06-29T15:29:49.713Z,27.57
2018-06-29T15:32:19.073Z,30.53
2018-06-29T15:34:48.451Z,28.27
2018-06-29T15:37:17.280Z,34.90
2018-06-29T15:39:46.736Z,23.53
2018-06-29T15:42:16.049Z,22.67
2018-06-29T15:44:44.838Z,20.63
2018-06-29T15:47:14.776Z,23.90
2018-06-29T15:49:44.086Z,32.23
2018-06-29T15:52:13.382Z,31.03
2018-06-29T15:54:42.727Z,26.67
2018-06-29T15:57:12.058Z,26.63
2018-06-29T15:59:41.382Z,36.93
2018-06-29T16:02:11.537Z,31.17
2018-06-29T16:04:40.947Z,33.17
2018-06-29T16:07:10.462Z,24.30
2018-06-29T16:09:40.101Z,26.53
2018-06-29T16:12:09.547Z,25.33
2018-06-29T16:14:39.016Z,29.27
2018-06-29T16:17:08.475Z,25.67
2018-06-29T16:19:37.893Z,25.83
2018-06-29T16:22:07.372Z,29.10
2018-06-29T16:24:36.974Z,27.33
2018-06-29T16:27:06.379Z,23.37
2018-06-29T16:29:35.733Z,31.23
2018-06-29T16:32:05.130Z,27.20
2018-06-29T16:34:34.726Z,25.57
2018-06-29T16:37:04.302Z,29.80
2018-06-29T16:39:33.658Z,28.37
2018-06-29T16:42:03.000Z,30.30
2018-06-29T16:44:32.352Z,24.70
2018-06-29T16:47:01.704Z,23.83
2018-06-29T16:49:31.035Z,27.83
2018-06-29T16:51:59.900Z,25.93
2018-06-29T16:54:29.292Z,27.90
2018-06-29T16:56:58.692Z,21.30
2018-06-29T16:59:28.063Z,30.57
2018-06-29T17:01:57.476Z,23.90
2018-06-29T17:04:26.887Z,31.57
2018-06-29T17:06:56.302Z,26.83
2018-06-29T17:09:25.659Z,23.77
2018-06-29T17:11:55.098Z,26.63
2018-06-29T17:14:24.915Z,29.53
2018-06-29T17:16:54.207Z,27.10
2018-06-29T17:19:23.573Z,46.60
2018-06-29T17:21:52.923Z,25.47
2018-06-29T17:24:22.311Z,25.67
2018-06-29T17:26:51.872Z,39.33
2018-06-29T17:29:20.751Z,32.40
2018-06-29T17:31:50.222Z,23.43
2018-06-29T17:34:19.901Z,37.20
2018-06-29T17:36:49.305Z,22.87
2018-06-29T17:39:18.743Z,24.07
2018-06-29T17:41:48.191Z,28.03
2018-06-29T17:44:17.112Z,30.03
2018-06-29T17:46:46.715Z,27.17
2018-06-29T17:49:15.992Z,25.27
2018-06-29T17:51:44.785Z,23.17
2018-06-29T17:54:13.656Z,23.60
2018-06-29T17:56:43.058Z,31.37
2018-06-29T17:59:11.916Z,26.70
2018-06-29T18:01:41.436Z,23.63
2018-06-29T18:04:10.885Z,26.97
2018-06-29T18:06:40.338Z,23.00
2018-06-29T18:09:11.334Z,28.93
2018-06-29T18:11:40.972Z,25.50
2018-06-29T18:14:10.421Z,28.57
2018-06-29T18:16:39.935Z,34.43
2018-06-29T18:19:09.305Z,22.77
2018-06-29T18:21:38.741Z,30.63
2018-06-29T18:24:09.573Z,27.13
2018-06-29T18:26:38.442Z,22.13
2018-06-29T18:29:07.858Z,26.20
2018-06-29T18:31:36.806Z,30.73
2018-06-29T18:34:06.232Z,23.70
2018-06-29T18:36:35.567Z,28.30
2018-06-29T18:39:06.946Z,42.50
2018-06-29T18:41:36.298Z,26.17
2018-06-29T18:44:05.111Z,26.70
2018-06-29T18:46:34.505Z,37.60
2018-06-29T18:49:03.921Z,54.10
2018-06-29T18:51:33.248Z,32.97
2018-06-29T18:54:02.611Z,35.63
2018-06-29T18:56:31.890Z,41.37
2018-06-29T18:59:00.680Z,43.10
2018-06-29T19:01:30.103Z,81.30
2018-06-29T19:03:59.527Z,54.10
2018-06-29T19:06:28.936Z,41.37
2018-06-29T19:08:58.365Z,40.33
2018-06-29T19:11:27.755Z,34.23
2018-06-29T19:13:57.571Z,42.37
2018-06-29T19:16:26.943Z,33.60
2018-06-29T19:18:56.367Z,37.57
2018-06-29T19:21:25.721Z,34.67
2018-06-29T19:23:55.107Z,31.97
2018-06-29T19:26:23.917Z,32.23
2018-06-29T19:28:52.754Z,29.53
2018-06-29T19:31:22.300Z,31.90
2018-06-29T19:33:51.647Z,28.80
2018-06-29T19:36:21.013Z,31.70
2018-06-29T19:38:49.915Z,28.60
2018-06-29T19:41:19.464Z,30.87
2018-06-29T19:43:48.913Z,29.40
2018-06-29T19:46:17.806Z,29.10
2018-06-29T19:48:46.833Z,28.50
2018-06-29T19:51:16.189Z,25.83
2018-06-29T19:53:45.594Z,23.50
2018-06-29T19:56:14.448Z,30.17
2018-06-29T19:58:43.937Z,31.47
2018-06-29T20:01:13.251Z,28.00
2018-06-29T20:03:42.527Z,33.53
2018-06-29T20:06:12.053Z,32.50
2018-06-29T20:08:41.463Z,28.23
2018-06-29T20:11:10.855Z,25.00
2018-06-29T20:13:40.191Z,22.90
2018-06-29T20:16:09.815Z,23.00
2018-06-29T20:18:39.112Z,16.33
2018-06-29T20:21:07.983Z,18.53
2018-06-29T20:23:37.948Z,20.10
2018-06-29T20:26:07.550Z,22.10
2018-06-29T20:28:37.027Z,19.27
2018-06-29T20:31:05.814Z,21.13
2018-06-29T20:33:34.554Z,25.83
2018-06-29T20:36:04.002Z,16.53
2018-06-29T20:38:32.809Z,24.10
2018-06-29T20:41:02.185Z,19.50
2018-06-29T20:43:31.798Z,21.40
2018-06-29T20:46:01.214Z,17.23
2018-06-29T20:48:30.655Z,15.70
2018-06-29T20:51:00.161Z,25.80
2018-06-29T20:53:29.597Z,22.20
2018-06-29T20:55:58.951Z,13.63
2018-06-29T20:58:28.361Z,16.23
2018-06-29T21:00:57.742Z,24.50
2018-06-29T21:03:27.169Z,19.73
2018-06-29T21:05:56.581Z,18.23
2018-06-29T21:08:26.053Z,20.90
2018-06-29T21:10:55.421Z,18.30
2018-06-29T21:13:24.182Z,20.93
2018-06-29T21:15:53.666Z,25.00
2018-06-29T21:18:23.021Z,20.77
2018-06-29T21:20:51.780Z,19.47
2018-06-29T21:23:22.327Z,17.80
2018-06-29T21:25:58.706Z,14.80
2018-06-29T21:28:27.535Z,18.80
2018-06-29T21:30:57.239Z,20.13
2018-06-29T21:33:26.763Z,17.27
2018-06-29T21:35:56.132Z,16.33
2018-06-29T21:38:25.527Z,16.97
2018-06-29T21:40:56.201Z,15.20
2018-06-29T21:43:25.571Z,22.30
2018-06-29T21:45:54.915Z,21.17
2018-06-29T21:48:24.338Z,14.70
2018-06-29T21:50:53.694Z,18.80
2018-06-29T21:53:23.003Z,17.57
2018-06-29T21:55:52.414Z,14.77
2018-06-29T21:58:21.755Z,22.00
2018-06-29T22:00:53.340Z,21.30
2018-06-29T22:03:23.423Z,20.00
2018-06-29T22:05:52.756Z,25.87
2018-06-29T22:08:22.071Z,20.00
2018-06-29T22:10:51.400Z,17.83
2018-06-29T22:13:20.743Z,16.17
2018-06-29T22:15:51.068Z,20.50
2018-06-29T22:18:20.408Z,24.07
2018-06-29T22:20:49.925Z,15.97
2018-06-29T22:23:19.383Z,17.20
2018-06-29T22:25:48.827Z,19.00
2018-06-29T22:28:18.264Z,15.70
2018-06-29T22:30:48.599Z,17.70
2018-06-29T22:33:18.014Z,23.17
2018-06-29T22:35:47.416Z,18.23
2018-06-29T22:38:16.900Z,21.37
2018-06-29T22:40:45.657Z,25.10
2018-06-29T22:43:15.037Z,23.30
2018-06-29T22:45:44.442Z,15.80
2018-06-29T22:48:13.759Z,18.00
2018-06-29T22:50:43.074Z,14.90
2018-06-29T22:53:12.861Z,15.70
2018-06-29T22:55:42.451Z,17.67
2018-06-29T22:58:11.843Z,17.00
2018-06-29T23:00:41.180Z,15.90
2018-06-29T23:03:11.904Z,17.90
2018-06-29T23:05:41.270Z,16.93
2018-06-29T23:08:11.706Z,15.97
2018-06-29T23:10:41.099Z,18.67
2018-06-29T23:13:10.525Z,23.63
2018-06-29T23:15:39.894Z,14.80
2018-06-29T23:18:08.685Z,14.70
2018-06-29T23:20:38.034Z,16.47
2018-06-29T23:23:07.461Z,16.20
2018-06-29T23:25:36.850Z,20.50
2018-06-29T23:28:06.343Z,20.40
2018-06-29T23:30:35.641Z,18.87
2018-06-29T23:33:04.970Z,22.03
2018-06-29T23:35:34.318Z,26.47
2018-06-29T23:38:03.643Z,27.97
2018-06-29T23:40:32.936Z,22.20
2018-06-29T23:43:02.267Z,23.40
2018-06-29T23:45:31.654Z,25.63
2018-06-29T23:48:00.992Z,24.97
2018-06-29T23:50:29.762Z,19.27
2018-06-29T23:52:59.210Z,19.60
2018-06-29T23:55:28.613Z,22.73
2018-06-29T23:57:58.108Z,22.50
